createdAt,value
2022-08-18T00:01:18.845Z,100431.44
2022-08-18T00:03:57.429Z,100420.09
2022-08-18T00:06:29.553Z,100417.94
2022-08-18T00:09:05.571Z,100408.25
2022-08-18T00:11:41.463Z,100409.75
2022-08-18T00:14:21.706Z,100415.19
2022-08-18T00:16:54.008Z,100422.78
2022-08-18T00:19:45.305Z,100427.78
2022-08-18T00:22:15.493Z,100428.50
2022-08-18T00:24:49.649Z,100419.84
2022-08-18T00:27:21.799Z,100416.28
2022-08-18T00:29:52.491Z,100413.22
2022-08-18T00:32:35.949Z,100415.72
2022-08-18T00:35:06.438Z,100422.56
2022-08-18T00:37:34.105Z,100413.78
2022-08-18T00:40:01.596Z,100392.91
2022-08-18T00:42:31.226Z,100392.69
2022-08-18T00:45:02.537Z,100379.66
2022-08-18T00:47:41.602Z,100380.06
2022-08-18T00:50:15.591Z,100387.94
2022-08-18T00:52:55.970Z,100404.75
2022-08-18T00:55:24.516Z,100397.66
2022-08-18T00:58:02.526Z,100398.56
2022-08-18T01:00:30.167Z,100400.34
2022-08-18T01:03:03.654Z,100411.09
2022-08-18T01:05:50.457Z,100408.53
2022-08-18T01:08:20.041Z,100404.84
2022-08-18T01:11:01.721Z,100400.50
2022-08-18T01:13:31.676Z,100390.59
2022-08-18T01:16:19.918Z,100390.78
2022-08-18T01:19:06.124Z,100409.97
2022-08-18T01:21:53.849Z,100413.84
2022-08-18T01:24:43.522Z,100428.94
2022-08-18T01:27:13.229Z,100424.72
2022-08-18T01:29:43.481Z,100426.25
2022-08-18T01:32:16.504Z,100429.91
2022-08-18T01:34:48.074Z,100399.97
2022-08-18T01:37:17.983Z,100408.44
2022-08-18T01:41:23.420Z,100408.53
2022-08-18T01:42:34.332Z,100411.53
2022-08-18T01:45:04.716Z,100396.25
2022-08-18T01:47:48.356Z,100385.88
2022-08-18T01:50:17.753Z,100374.81
2022-08-18T01:52:45.444Z,100376.88
2022-08-18T01:55:14.796Z,100386.06
2022-08-18T01:57:45.063Z,100386.78
2022-08-18T02:00:16.340Z,100399.88
2022-08-18T02:02:44.071Z,100412.09
2022-08-18T02:05:16.817Z,100422.41
2022-08-18T02:07:44.637Z,100412.94
2022-08-18T02:10:16.389Z,100423.16
2022-08-18T02:12:44.421Z,100422.94
2022-08-18T02:15:14.890Z,100443.09
2022-08-18T02:17:45.280Z,100444.75
2022-08-18T02:20:15.424Z,100461.19
2022-08-18T02:22:43.546Z,100464.44
2022-08-18T02:25:12.659Z,100472.06
2022-08-18T02:27:40.692Z,100471.47
2022-08-18T02:30:12.026Z,100483.00
2022-08-18T02:32:39.572Z,100485.72
2022-08-18T02:35:11.756Z,100474.00
2022-08-18T02:37:43.272Z,100468.13
2022-08-18T02:40:14.877Z,100465.69
2022-08-18T02:42:45.512Z,100476.78
2022-08-18T02:45:16.850Z,100504.97
2022-08-18T02:47:55.803Z,100547.41
2022-08-18T02:50:23.388Z,100583.91
2022-08-18T02:52:51.191Z,100591.03
2022-08-18T02:55:18.672Z,100584.13
2022-08-18T02:57:49.039Z,100581.34
2022-08-18T03:00:18.782Z,100587.06
2022-08-18T03:02:51.662Z,100600.69
2022-08-18T03:05:20.043Z,100603.06
2022-08-18T03:07:47.602Z,100612.63
2022-08-18T03:10:32.825Z,100594.03
2022-08-18T03:13:02.423Z,100591.03
2022-08-18T03:15:29.963Z,100585.75
2022-08-18T03:17:58.188Z,100555.81
2022-08-18T03:20:30.432Z,100522.84
2022-08-18T03:22:59.623Z,100503.44
2022-08-18T03:25:33.497Z,100548.69
2022-08-18T03:28:03.868Z,100518.31
2022-08-18T03:30:31.369Z,100449.41
2022-08-18T03:32:58.861Z,100267.31
2022-08-18T03:35:26.346Z,100214.69
2022-08-18T03:37:55.821Z,100238.53
2022-08-18T03:40:23.292Z,100197.19
2022-08-18T03:42:53.307Z,100174.28
2022-08-18T03:45:20.753Z,100171.28
2022-08-18T03:47:49.955Z,100180.91
2022-08-18T03:50:18.761Z,100186.41
2022-08-18T03:52:49.283Z,100199.28
2022-08-18T03:55:16.892Z,100217.66
2022-08-18T03:57:45.673Z,100214.56
2022-08-18T04:00:14.266Z,100214.63
2022-08-18T04:02:41.670Z,100198.78
2022-08-18T04:05:11.731Z,100213.00
2022-08-18T04:07:39.271Z,100235.97
2022-08-18T04:10:07.158Z,100239.13
2022-08-18T04:12:49.174Z,100229.19
2022-08-18T04:15:17.046Z,100218.44
2022-08-18T04:17:56.004Z,100191.88
2022-08-18T04:20:33.254Z,100197.41
2022-08-18T04:23:03.359Z,100183.28
2022-08-18T04:25:33.141Z,100177.66
2022-08-18T04:28:02.410Z,100171.72
2022-08-18T04:30:29.994Z,100171.84
2022-08-18T04:32:57.453Z,100188.84
2022-08-18T04:35:25.436Z,100200.44
2022-08-18T04:37:53.194Z,100210.91
2022-08-18T04:40:24.982Z,100220.63
2022-08-18T04:42:52.826Z,100232.47
2022-08-18T04:45:20.341Z,100223.19
2022-08-18T04:47:47.835Z,100234.97
2022-08-18T04:50:18.548Z,100237.03
2022-08-18T04:53:04.902Z,100243.00
2022-08-18T04:55:34.482Z,100279.91
2022-08-18T04:58:01.953Z,100304.81
2022-08-18T05:00:31.871Z,100302.94
2022-08-18T05:03:00.440Z,100311.81
2022-08-18T05:05:27.987Z,100307.81
2022-08-18T05:07:56.477Z,100319.84
2022-08-18T05:10:23.921Z,100310.59
2022-08-18T05:12:51.425Z,100294.59
2022-08-18T05:15:19.236Z,100290.00
2022-08-18T05:17:49.329Z,100294.69
2022-08-18T05:20:18.686Z,100291.44
2022-08-18T05:22:47.002Z,100297.78
2022-08-18T05:25:14.435Z,100312.69
2022-08-18T05:27:43.798Z,100319.25
2022-08-18T05:30:12.788Z,100316.41
2022-08-18T05:32:49.278Z,100310.16
2022-08-18T05:35:28.534Z,100315.28
2022-08-18T05:38:31.224Z,100311.44
2022-08-18T05:41:14.095Z,100305.81
2022-08-18T05:43:51.086Z,100317.53
2022-08-18T05:46:41.458Z,100327.25
2022-08-18T05:49:08.910Z,100345.13
2022-08-18T05:51:43.646Z,100353.66
2022-08-18T05:54:31.875Z,100363.97
2022-08-18T05:57:05.488Z,100368.69
2022-08-18T05:59:36.011Z,100376.13
2022-08-18T06:02:26.641Z,100380.34
2022-08-18T06:04:59.199Z,100403.09
2022-08-18T06:07:52.473Z,100397.81
2022-08-18T06:10:20.612Z,100387.03
2022-08-18T06:12:55.946Z,100389.03
2022-08-18T06:15:27.238Z,100398.00
2022-08-18T06:18:18.746Z,100379.59
2022-08-18T06:21:06.096Z,100368.72
2022-08-18T06:24:06.029Z,100396.69
2022-08-18T06:26:52.194Z,100422.06
2022-08-18T06:29:50.296Z,100436.19
2022-08-18T06:32:39.863Z,100438.44
2022-08-18T06:35:29.943Z,100431.88
2022-08-18T06:38:40.947Z,100440.94
2022-08-18T06:41:40.931Z,100435.56
2022-08-18T06:44:19.775Z,100426.59
2022-08-18T06:47:04.401Z,100425.41
2022-08-18T06:49:40.450Z,100446.81
2022-08-18T06:52:29.248Z,100439.28
2022-08-18T06:55:02.919Z,100434.38
2022-08-18T06:57:37.025Z,100417.38
2022-08-18T07:00:20.573Z,100383.72
2022-08-18T07:02:59.820Z,100388.84
2022-08-18T07:05:30.807Z,100422.44
2022-08-18T07:08:31.541Z,100450.31
2022-08-18T07:11:20.142Z,100475.81
2022-08-18T07:14:03.674Z,100467.34
2022-08-18T07:19:31.712Z,100579.16
2022-08-18T07:22:12.958Z,100654.69
2022-08-18T07:24:40.599Z,100675.19
2022-08-18T07:27:11.801Z,100656.81
2022-08-18T07:29:57.961Z,100665.31
2022-08-18T07:32:32.455Z,100655.63
2022-08-18T07:35:03.722Z,100633.03
2022-08-18T07:37:45.009Z,100618.16
2022-08-18T07:40:31.603Z,100615.88
2022-08-18T07:43:18.192Z,100593.63
2022-08-18T07:45:50.465Z,100579.47
2022-08-18T07:48:40.405Z,100527.19
2022-08-18T07:51:23.842Z,100428.34
2022-08-18T07:54:04.236Z,100324.88
2022-08-18T07:56:56.353Z,100278.53
2022-08-18T07:59:44.899Z,100264.63
2022-08-18T08:02:36.257Z,100271.94
2022-08-18T08:05:11.727Z,100300.75
2022-08-18T08:08:06.324Z,100356.41
2022-08-18T08:10:46.213Z,100313.97
2022-08-18T08:13:55.152Z,100261.88
2022-08-18T08:16:36.270Z,100268.03
2022-08-18T08:19:49.421Z,100242.72
2022-08-18T08:22:37.765Z,100219.09
2022-08-18T08:25:45.209Z,100209.03
2022-08-18T08:28:31.540Z,100205.53
2022-08-18T08:31:33.369Z,100233.25
2022-08-18T08:34:14.809Z,100237.28
2022-08-18T08:36:45.697Z,100244.88
2022-08-18T08:39:28.861Z,100242.03
2022-08-18T08:42:30.871Z,100236.06
2022-08-18T08:45:10.696Z,100256.88
2022-08-18T08:48:08.523Z,100267.66
2022-08-18T08:50:54.655Z,100260.94
2022-08-18T08:53:29.998Z,100242.66
2022-08-18T08:56:04.387Z,100237.94
2022-08-18T08:58:40.430Z,100217.59
2022-08-18T09:01:34.679Z,100187.59
2022-08-18T13:18:45.768Z,100347.84
2022-08-18T13:21:16.330Z,100350.19
2022-08-18T13:23:44.615Z,100343.69
2022-08-18T13:26:22.578Z,100353.72
2022-08-18T13:28:56.926Z,100358.66
2022-08-18T13:31:29.230Z,100364.50
2022-08-18T13:34:04.120Z,100365.94
2022-08-18T13:36:46.223Z,100360.06
2022-08-18T13:39:18.589Z,100353.19
2022-08-18T13:41:49.113Z,100357.31
2022-08-18T13:44:19.767Z,100339.03
2022-08-18T13:46:48.373Z,100337.69
2022-08-18T13:49:23.814Z,100333.00
2022-08-18T13:52:01.062Z,100344.06
2022-08-18T13:54:37.242Z,100334.88
2022-08-18T13:57:06.862Z,100326.72
2022-08-18T13:59:35.620Z,100326.63
2022-08-18T14:02:08.581Z,100318.94
2022-08-18T14:04:38.635Z,100323.75
2022-08-18T14:07:11.730Z,100311.91
2022-08-18T14:09:40.446Z,100319.50
2022-08-18T14:12:22.572Z,100307.41
2022-08-18T14:14:53.788Z,100301.78
2022-08-18T14:17:23.396Z,100307.47
2022-08-18T14:20:21.386Z,100312.66
2022-08-18T14:23:21.404Z,100310.47
2022-08-18T14:26:09.102Z,100309.38
2022-08-18T14:28:41.249Z,100300.50
2022-08-18T14:31:11.838Z,100294.88
2022-08-18T14:33:50.714Z,100296.59
2022-08-18T14:36:29.476Z,100308.56
2022-08-18T14:38:59.763Z,100305.44
2022-08-18T14:41:28.371Z,100302.53
2022-08-18T14:44:12.666Z,100294.72
2022-08-18T14:46:52.453Z,100313.03
2022-08-18T14:49:29.363Z,100310.13
2022-08-18T14:52:03.332Z,100305.63
2022-08-18T14:54:39.296Z,100312.69
2022-08-18T14:57:15.185Z,100315.19
2022-08-18T14:59:43.363Z,100312.50
2022-08-18T15:02:13.500Z,100306.31
2022-08-18T15:04:55.866Z,100302.66
2022-08-18T15:07:28.298Z,100305.38
2022-08-18T15:10:15.227Z,100311.22
2022-08-18T15:12:44.920Z,100319.78
2022-08-18T15:15:17.717Z,100325.78
2022-08-18T15:17:50.067Z,100325.31
2022-08-18T15:20:29.121Z,100329.69
2022-08-18T15:23:24.804Z,100314.97
2022-08-18T15:25:56.722Z,100331.25
2022-08-18T15:28:28.062Z,100324.84
2022-08-18T15:33:50.248Z,100322.22
2022-08-18T15:36:29.010Z,100322.75
2022-08-18T15:38:58.270Z,100309.81
2022-08-18T15:41:43.811Z,100311.50
2022-08-18T15:44:16.240Z,100297.50
2022-08-18T15:46:47.302Z,100305.50
2022-08-18T15:49:21.831Z,100297.50
2022-08-18T15:51:52.562Z,100297.38
2022-08-18T15:54:20.770Z,100290.06
2022-08-18T15:56:58.127Z,100290.44
2022-08-18T15:59:34.266Z,100295.50
2022-08-18T16:02:11.531Z,100306.16
2022-08-18T16:04:41.390Z,100293.06
2022-08-18T16:07:15.649Z,100293.75
2022-08-18T16:09:45.711Z,100300.94
2022-08-18T16:12:13.317Z,100283.84
2022-08-18T16:14:41.047Z,100305.59
2022-08-18T16:17:18.289Z,100295.81
2022-08-18T16:19:51.453Z,100296.91
2022-08-18T16:22:18.999Z,100307.09
2022-08-18T16:24:54.879Z,100304.72
2022-08-18T16:27:24.033Z,100305.28
2022-08-18T16:29:52.477Z,100292.16
2022-08-18T16:32:20.156Z,100306.88
2022-08-18T16:34:47.946Z,100306.56
2022-08-18T16:39:44.365Z,100288.75
2022-08-18T16:42:14.962Z,100271.88
2022-08-18T16:44:45.289Z,100276.47
2022-08-18T16:47:14.121Z,100272.81
2022-08-18T16:49:41.697Z,100266.16
2022-08-18T16:52:09.264Z,100251.31
2022-08-18T16:54:36.966Z,100237.59
2022-08-18T16:57:04.628Z,100239.63
2022-08-18T16:59:50.357Z,100234.03
2022-08-18T17:02:38.593Z,100224.41
2022-08-18T17:05:06.471Z,100224.47
2022-08-18T17:07:35.612Z,100216.53
2022-08-18T17:10:06.234Z,100220.28
2022-08-18T17:12:35.935Z,100219.75
2022-08-18T17:15:04.056Z,100225.03
2022-08-18T17:17:31.858Z,100226.75
2022-08-18T17:20:02.394Z,100216.75
2022-08-18T17:22:38.446Z,100231.56
2022-08-18T17:25:10.427Z,100223.09
2022-08-18T17:27:40.195Z,100206.00
2022-08-18T17:30:18.545Z,100194.19
2022-08-18T17:32:57.681Z,100203.34
2022-08-18T17:35:36.219Z,100211.94
2022-08-18T17:38:08.204Z,100200.44
2022-08-18T17:40:43.101Z,100189.00
2022-08-18T17:43:15.032Z,100185.88
2022-08-18T17:45:59.088Z,100182.84
2022-08-18T17:48:38.604Z,100199.94
2022-08-18T17:51:30.176Z,100217.03
2022-08-18T17:54:01.035Z,100221.84
2022-08-18T17:56:42.978Z,100219.72
2022-08-18T17:59:45.905Z,100214.22
2022-08-18T18:02:30.313Z,100232.13
2022-08-18T18:05:00.863Z,100249.81
2022-08-18T18:07:51.486Z,100262.88
2022-08-18T18:10:25.722Z,100259.81
2022-08-18T18:13:24.579Z,100257.03
2022-08-18T18:16:21.330Z,100248.75
2022-08-18T18:19:01.258Z,100239.94
2022-08-18T18:22:00.797Z,100221.84
2022-08-18T18:24:23.677Z,100211.88
2022-08-18T18:26:52.337Z,100188.63
2022-08-18T18:29:37.366Z,100193.78
2022-08-18T18:32:24.126Z,100190.94
2022-08-18T18:35:27.531Z,100197.03
2022-08-18T18:38:01.762Z,100180.19
2022-08-18T18:40:31.808Z,100160.97
2022-08-18T18:43:25.203Z,100150.78
2022-08-18T18:46:15.374Z,100160.38
2022-08-18T18:49:10.006Z,100178.47
2022-08-18T18:51:50.844Z,100182.38
2022-08-18T18:54:38.084Z,100201.53
2022-08-18T18:57:20.176Z,100201.94
2022-08-18T19:00:02.491Z,100199.44
2022-08-18T19:02:38.232Z,100205.47
2022-08-18T19:05:20.367Z,100235.25
2022-08-18T19:08:13.105Z,100239.72
2022-08-18T19:10:55.696Z,100235.31
2022-08-18T19:13:32.485Z,100240.88
2022-08-18T19:16:23.915Z,100248.81
2022-08-18T19:19:37.210Z,100253.50
2022-08-18T19:22:04.082Z,100251.22
2022-08-18T19:24:42.983Z,100243.75
2022-08-18T19:27:23.008Z,100215.09
2022-08-18T19:29:56.984Z,100180.66
2022-08-18T19:32:37.070Z,100174.50
2022-08-18T19:35:11.956Z,100192.34
2022-08-18T19:38:14.334Z,100209.47
2022-08-18T19:41:00.349Z,100225.34
2022-08-18T19:43:42.501Z,100252.84
2022-08-18T19:46:29.531Z,100262.59
2022-08-18T19:49:22.478Z,100251.31
2022-08-18T19:51:57.535Z,100239.72
2022-08-18T19:54:45.300Z,100228.31
2022-08-18T19:57:26.532Z,100218.00
2022-08-18T20:00:10.427Z,100214.34
2022-08-18T20:02:45.461Z,100203.94
2022-08-18T20:05:39.352Z,100193.00
2022-08-18T20:08:43.779Z,100215.94
2022-08-18T20:11:21.017Z,100249.88
2022-08-18T20:14:13.819Z,100242.97
2022-08-18T20:16:44.906Z,100243.28
2022-08-18T20:19:35.724Z,100245.47
2022-08-18T20:22:24.878Z,100258.81
2022-08-18T20:25:08.911Z,100283.78
2022-08-18T20:27:40.485Z,100284.16
2022-08-18T20:30:08.826Z,100299.84
2022-08-18T20:32:39.115Z,100283.19
2022-08-18T20:35:27.980Z,100272.66
2022-08-18T20:38:35.207Z,100265.59
2022-08-18T20:41:52.013Z,100230.44
2022-08-18T20:44:41.634Z,100246.50
2022-08-18T20:47:49.152Z,100239.25
2022-08-18T20:50:48.718Z,100234.03
2022-08-18T20:53:30.517Z,100232.84
2022-08-18T20:56:13.029Z,100229.69
2022-08-18T20:59:13.847Z,100233.19
2022-08-18T21:01:41.428Z,100233.34
2022-08-18T21:04:09.184Z,100220.72
2022-08-18T21:06:44.611Z,100215.00
2022-08-18T21:09:17.995Z,100230.53
2022-08-18T21:11:47.914Z,100253.59
2022-08-18T21:14:25.887Z,100272.53
2022-08-18T21:16:58.959Z,100272.88
2022-08-18T21:19:29.651Z,100279.72
2022-08-18T21:22:00.955Z,100273.72
2022-08-18T21:24:32.611Z,100251.00
2022-08-18T21:27:20.957Z,100237.41
2022-08-18T21:29:49.816Z,100217.22
2022-08-18T21:32:31.558Z,100222.31
2022-08-18T21:35:05.904Z,100227.00
2022-08-18T21:37:41.641Z,100228.91
2022-08-18T21:40:09.587Z,100231.94
2022-08-18T21:42:43.674Z,100227.88
2022-08-18T21:45:20.416Z,100197.97
2022-08-18T21:47:53.840Z,100168.13
2022-08-18T21:50:30.824Z,100172.09
2022-08-18T21:53:28.145Z,100177.56
2022-08-18T21:55:57.566Z,100165.47
2022-08-18T21:58:34.473Z,100173.78
2022-08-18T22:01:11.128Z,100175.81
2022-08-18T22:04:16.742Z,100191.81
2022-08-18T22:06:49.122Z,100181.25
2022-08-18T22:09:39.499Z,100161.84
2022-08-18T22:12:49.946Z,100154.59
2022-08-18T22:15:23.175Z,100194.53
2022-08-18T22:18:01.218Z,100215.75
2022-08-18T22:20:50.204Z,100215.56
2022-08-18T22:23:50.808Z,100227.94
2022-08-18T22:26:18.262Z,100232.63
2022-08-18T22:28:48.502Z,100228.44
2022-08-18T22:31:21.477Z,100223.44
2022-08-18T22:33:53.337Z,100221.41
2022-08-18T22:36:34.883Z,100235.16
2022-08-18T22:39:02.818Z,100236.81
2022-08-18T22:41:32.246Z,100225.19
2022-08-18T22:44:00.673Z,100205.69
2022-08-18T22:46:29.086Z,100196.25
2022-08-18T22:48:56.615Z,100166.53
2022-08-18T22:51:28.214Z,100151.94
2022-08-18T22:53:59.291Z,100141.59
2022-08-18T22:56:34.598Z,100144.72
2022-08-18T22:59:15.863Z,100163.53
2022-08-18T23:01:50.360Z,100159.81
2022-08-18T23:04:22.177Z,100152.16
2022-08-18T23:06:53.689Z,100144.63
2022-08-18T23:09:24.467Z,100129.72
2022-08-18T23:11:53.664Z,100117.31
2022-08-18T23:14:22.346Z,100092.44
2022-08-18T23:16:50.543Z,100075.06
2022-08-18T23:19:19.582Z,100045.88
2022-08-18T23:21:48.689Z,100019.69
2022-08-18T23:24:21.910Z,99990.72
2022-08-18T23:26:49.970Z,99981.94
2022-08-18T23:29:20.551Z,99988.69
2022-08-18T23:31:49.473Z,100001.38
2022-08-18T23:34:19.828Z,100026.13
2022-08-18T23:36:57.294Z,100053.16
2022-08-18T23:39:26.265Z,100061.88
2022-08-18T23:41:54.119Z,100059.72
2022-08-18T23:44:27.496Z,100075.06
2022-08-18T23:46:58.183Z,100103.16
2022-08-18T23:49:28.686Z,100122.06
2022-08-18T23:51:57.813Z,100122.78
2022-08-18T23:54:32.327Z,100116.44
2022-08-18T23:56:59.933Z,100125.53
2022-08-18T23:59:28.829Z,100118.78
